createdAt,value
2022-11-04T00:01:42.785Z,77.92
2022-11-04T00:04:10.659Z,77.51
2022-11-04T00:06:37.843Z,77.24
2022-11-04T00:09:06.474Z,77.62
2022-11-04T00:11:51.315Z,78.53
2022-11-04T00:14:17.973Z,78.09
2022-11-04T00:17:03.070Z,78.17
2022-11-04T00:19:49.672Z,78.37
2022-11-04T00:22:35.246Z,79.59
2022-11-04T00:25:20.481Z,77.41
2022-11-04T00:28:05.453Z,77.68
2022-11-04T00:30:32.162Z,78.21
2022-11-04T00:33:17.258Z,79.51
2022-11-04T00:35:50.911Z,79.31
2022-11-04T00:38:17.979Z,79.90
2022-11-04T00:40:44.651Z,79.29
2022-11-04T00:43:11.984Z,78.57
2022-11-04T00:45:41.118Z,80.32
2022-11-04T00:48:07.865Z,80.22
2022-11-04T00:50:34.534Z,80.28
2022-11-04T00:53:01.959Z,79.28
2022-11-04T00:55:28.685Z,79.06
2022-11-04T00:57:55.715Z,79.42
2022-11-04T01:00:22.286Z,78.85
2022-11-04T01:02:48.722Z,79.72
2022-11-04T01:05:15.908Z,80.35
2022-11-04T01:07:43.796Z,78.71
2022-11-04T01:10:11.212Z,78.63
2022-11-04T01:12:37.627Z,78.18
2022-11-04T01:15:04.522Z,79.07
2022-11-04T01:17:30.919Z,79.38
2022-11-04T01:19:57.307Z,78.47
2022-11-04T01:22:23.706Z,79.42
2022-11-04T01:24:50.112Z,78.89
2022-11-04T01:27:16.523Z,77.34
2022-11-04T01:29:42.930Z,79.10
2022-11-04T01:32:09.321Z,78.50
2022-11-04T01:34:40.627Z,78.20
2022-11-04T01:37:09.766Z,78.72
2022-11-04T01:39:36.153Z,79.71
2022-11-04T01:44:49.653Z,78.75
2022-11-04T01:47:18.691Z,79.81
2022-11-04T01:49:49.179Z,79.60
2022-11-04T01:52:24.307Z,79.64
2022-11-04T01:54:55.507Z,79.61
2022-11-04T01:57:33.081Z,79.21
2022-11-04T02:00:02.709Z,79.99
2022-11-04T02:02:29.319Z,77.96
2022-11-04T02:04:56.657Z,78.21
2022-11-04T02:07:23.554Z,79.75
2022-11-04T02:09:50.209Z,80.06
2022-11-04T02:12:35.890Z,78.80
2022-11-04T02:15:02.664Z,79.94
2022-11-04T02:17:49.553Z,80.50
2022-11-04T02:20:21.892Z,80.11
2022-11-04T02:23:20.792Z,80.97
2022-11-04T02:26:08.657Z,80.62
2022-11-04T02:29:22.725Z,80.38
2022-11-04T02:31:52.580Z,80.07
2022-11-04T02:34:26.668Z,80.49
2022-11-04T02:37:02.997Z,81.29
2022-11-04T02:39:58.703Z,80.28
2022-11-04T02:42:27.873Z,80.43
2022-11-04T02:45:06.229Z,79.81
2022-11-04T02:47:37.033Z,80.45
2022-11-04T02:50:12.785Z,79.68
2022-11-04T02:52:51.515Z,80.36
2022-11-04T02:55:24.177Z,79.54
2022-11-04T02:57:53.858Z,81.09
2022-11-04T03:00:21.312Z,79.21
2022-11-04T03:02:50.337Z,81.69
2022-11-04T03:05:22.177Z,81.39
2022-11-04T03:07:51.373Z,82.36
2022-11-04T03:10:24.766Z,81.94
2022-11-04T03:13:25.545Z,81.88
2022-11-04T03:15:57.211Z,80.89
2022-11-04T03:18:23.567Z,82.11
2022-11-04T03:20:51.529Z,81.69
2022-11-04T03:23:18.580Z,81.39
2022-11-04T03:25:48.003Z,82.97
2022-11-04T03:28:27.283Z,80.87
2022-11-04T03:30:58.978Z,81.11
2022-11-04T03:33:34.512Z,80.59
2022-11-04T03:36:03.001Z,82.77
2022-11-04T03:38:29.436Z,82.54
2022-11-04T03:40:58.549Z,81.81
2022-11-04T03:43:27.747Z,82.82
2022-11-04T03:45:55.077Z,81.19
2022-11-04T03:48:22.948Z,81.45
2022-11-04T03:50:51.006Z,81.77
2022-11-04T03:53:21.951Z,82.31
2022-11-04T03:56:12.074Z,82.85
2022-11-04T03:58:55.957Z,81.60
2022-11-04T04:01:44.369Z,82.37
2022-11-04T04:04:23.865Z,83.02
2022-11-04T04:06:54.495Z,82.23
2022-11-04T04:09:27.635Z,82.06
2022-11-04T04:12:01.004Z,82.43
2022-11-04T04:14:57.321Z,81.74
2022-11-04T04:17:37.936Z,82.79
2022-11-04T04:20:09.401Z,82.41
2022-11-04T04:22:51.316Z,82.65
2022-11-04T04:25:38.006Z,82.71
2022-11-04T04:28:05.831Z,82.01
2022-11-04T04:30:32.733Z,81.09
2022-11-04T04:33:11.513Z,81.79
2022-11-04T04:35:49.148Z,82.42
2022-11-04T04:38:43.743Z,82.24
2022-11-04T04:41:48.999Z,82.04
2022-11-04T04:44:47.380Z,82.27
2022-11-04T04:47:25.801Z,82.54
2022-11-04T04:49:56.664Z,83.54
2022-11-04T04:52:25.527Z,82.46
2022-11-04T04:54:51.919Z,83.33
2022-11-04T04:57:18.388Z,82.74
2022-11-04T04:59:44.817Z,82.51
2022-11-04T05:02:11.440Z,82.61
2022-11-04T05:04:37.980Z,82.22
2022-11-04T05:07:04.417Z,83.11
2022-11-04T05:09:30.799Z,83.49
2022-11-04T05:11:57.741Z,82.78
2022-11-04T05:14:24.157Z,83.74
2022-11-04T05:16:50.565Z,82.40
2022-11-04T05:19:17.083Z,83.28
2022-11-04T05:21:43.509Z,82.75
2022-11-04T05:24:10.860Z,83.92
2022-11-04T05:26:37.372Z,83.32
2022-11-04T05:29:04.165Z,83.28
2022-11-04T05:31:30.792Z,82.53
2022-11-04T05:33:58.932Z,82.95
2022-11-04T05:36:25.993Z,83.30
2022-11-04T05:38:55.543Z,83.09
2022-11-04T05:41:27.781Z,83.12
2022-11-04T05:43:56.484Z,83.71
2022-11-04T05:46:23.834Z,83.32
2022-11-04T05:48:50.737Z,84.08
2022-11-04T05:51:19.999Z,84.61
2022-11-04T05:53:46.400Z,84.86
2022-11-04T05:56:12.912Z,84.47
2022-11-04T05:58:39.500Z,84.04
2022-11-04T06:01:27.883Z,84.82
2022-11-04T06:03:55.333Z,84.42
2022-11-04T06:06:23.251Z,84.05
2022-11-04T06:08:50.810Z,85.61
2022-11-04T06:11:18.213Z,84.51
2022-11-04T06:13:44.792Z,85.54
2022-11-04T06:16:11.431Z,85.06
2022-11-04T06:18:37.845Z,84.55
2022-11-04T06:21:31.625Z,85.69
2022-11-04T06:23:58.903Z,84.88
2022-11-04T06:26:28.284Z,86.10
2022-11-04T06:28:55.387Z,85.47
2022-11-04T06:31:22.163Z,85.13
2022-11-04T06:33:48.747Z,85.43
2022-11-04T06:36:16.406Z,85.79
2022-11-04T06:38:43.301Z,84.83
2022-11-04T06:41:15.838Z,85.13
2022-11-04T06:43:42.638Z,84.77
2022-11-04T06:46:25.411Z,86.32
2022-11-04T06:48:51.933Z,85.20
2022-11-04T06:51:18.816Z,86.64
2022-11-04T06:53:45.250Z,85.92
2022-11-04T06:56:11.649Z,85.69
2022-11-04T06:58:38.174Z,85.82
2022-11-04T07:01:11.091Z,86.75
2022-11-04T07:03:40.135Z,85.64
2022-11-04T07:06:10.989Z,87.00
2022-11-04T07:08:37.448Z,85.49
2022-11-04T07:11:04.470Z,86.18
2022-11-04T07:13:30.917Z,86.87
2022-11-04T07:15:57.943Z,85.51
2022-11-04T07:18:24.373Z,87.52
2022-11-04T07:20:50.812Z,86.18
2022-11-04T07:23:17.678Z,86.44
2022-11-04T07:25:44.183Z,87.02
2022-11-04T07:28:10.944Z,86.51
2022-11-04T07:30:37.530Z,87.35
2022-11-04T07:33:03.965Z,86.21
2022-11-04T07:35:30.471Z,87.90
2022-11-04T07:37:56.876Z,86.53
2022-11-04T07:40:23.284Z,86.13
2022-11-04T07:42:49.753Z,86.14
2022-11-04T07:45:16.424Z,86.45
2022-11-04T07:47:42.837Z,87.87
2022-11-04T07:50:11.264Z,87.45
2022-11-04T07:52:38.383Z,85.93
2022-11-04T07:55:05.459Z,86.38
2022-11-04T07:57:31.891Z,86.52
2022-11-04T07:59:58.357Z,86.94
2022-11-04T08:02:28.651Z,87.17
2022-11-04T08:04:57.587Z,87.29
2022-11-04T08:07:24.523Z,88.57
2022-11-04T08:09:50.902Z,88.90
2022-11-04T08:12:17.347Z,88.22
2022-11-04T08:14:43.769Z,87.06
2022-11-04T08:17:10.187Z,88.25
2022-11-04T08:19:36.645Z,87.88
2022-11-04T08:22:03.161Z,88.56
2022-11-04T08:24:29.613Z,88.42
2022-11-04T08:26:56.035Z,88.58
2022-11-04T08:29:23.669Z,88.68
2022-11-04T08:31:50.065Z,86.44
2022-11-04T08:34:18.339Z,87.03
2022-11-04T08:36:45.536Z,84.61
2022-11-04T08:39:13.285Z,86.17
2022-11-04T08:41:43.019Z,87.10
2022-11-04T08:44:11.948Z,87.98
2022-11-04T08:46:40.271Z,88.85
2022-11-04T08:49:10.567Z,88.33
2022-11-04T08:51:41.913Z,88.32
2022-11-04T08:54:08.698Z,88.80
2022-11-04T08:56:37.537Z,88.69
2022-11-04T08:59:05.437Z,87.33
2022-11-04T09:01:36.828Z,87.67
2022-11-04T09:04:05.392Z,89.06
2022-11-04T09:06:36.040Z,87.40
2022-11-04T09:09:04.917Z,87.97
2022-11-04T09:11:38.221Z,87.54
2022-11-04T09:14:05.580Z,87.10
2022-11-04T09:16:34.675Z,87.30
2022-11-04T09:19:01.962Z,86.48
2022-11-04T09:21:29.077Z,87.40
2022-11-04T09:23:56.054Z,86.87
2022-11-04T09:26:23.920Z,86.36
2022-11-04T09:28:55.788Z,87.47
2022-11-04T09:31:22.847Z,87.12
2022-11-04T09:33:50.375Z,86.93
2022-11-04T09:36:17.228Z,86.92
2022-11-04T09:38:43.712Z,87.06
2022-11-04T09:41:28.695Z,86.99
2022-11-04T09:44:11.805Z,88.07
2022-11-04T09:46:39.428Z,88.51
2022-11-04T09:49:08.843Z,88.74
2022-11-04T09:51:53.689Z,88.65
2022-11-04T09:54:33.226Z,88.76
2022-11-04T09:57:02.607Z,88.27
2022-11-04T09:59:32.829Z,88.99
2022-11-04T10:02:12.056Z,88.29
2022-11-04T10:05:02.598Z,88.77
2022-11-04T10:07:50.183Z,89.03
2022-11-04T10:10:42.571Z,88.32
2022-11-04T10:13:32.304Z,87.70
2022-11-04T10:16:19.015Z,88.00
2022-11-04T10:19:16.049Z,88.36
2022-11-04T10:22:03.084Z,87.63
2022-11-04T10:24:41.315Z,87.12
2022-11-04T10:27:16.232Z,87.31
2022-11-04T10:29:47.189Z,86.70
2022-11-04T10:32:22.550Z,87.05
2022-11-04T10:34:57.269Z,86.70
2022-11-04T10:37:25.561Z,86.01
2022-11-04T10:39:59.486Z,86.04
2022-11-04T10:42:26.091Z,86.63
2022-11-04T10:44:53.037Z,85.84
2022-11-04T10:47:41.270Z,86.22
2022-11-04T10:50:41.983Z,85.67
2022-11-04T10:53:18.330Z,86.22
2022-11-04T10:56:07.951Z,85.88
2022-11-04T10:58:45.138Z,86.71
2022-11-04T11:01:31.746Z,86.21
2022-11-04T11:03:59.318Z,85.69
2022-11-04T11:06:29.698Z,86.48
2022-11-04T11:09:29.560Z,85.97
2022-11-04T11:12:02.080Z,86.09
2022-11-04T11:14:28.508Z,86.25
2022-11-04T11:17:14.277Z,86.21
2022-11-04T11:19:56.294Z,86.17
2022-11-04T11:22:41.222Z,85.72
2022-11-04T11:25:25.881Z,85.25
2022-11-04T11:28:00.122Z,85.07
2022-11-04T11:30:33.845Z,85.93
2022-11-04T11:33:08.625Z,86.10
2022-11-04T11:35:42.130Z,85.94
2022-11-04T11:38:19.004Z,86.20
2022-11-04T11:41:03.819Z,86.01
2022-11-04T11:43:36.611Z,84.84
2022-11-04T11:46:03.297Z,84.98
2022-11-04T11:48:32.697Z,85.53
2022-11-04T11:51:00.270Z,86.03
2022-11-04T11:53:34.275Z,85.71
2022-11-04T11:56:14.784Z,85.70
2022-11-04T12:01:46.838Z,86.31
2022-11-04T12:10:29.947Z,86.47
2022-11-04T12:13:02.770Z,86.35
2022-11-04T12:15:51.903Z,85.95
2022-11-04T12:18:27.542Z,86.43
2022-11-04T12:21:24.060Z,86.90
2022-11-04T12:24:01.109Z,86.28
2022-11-04T12:26:53.906Z,86.20
2022-11-04T12:29:51.397Z,85.24
2022-11-04T12:32:22.499Z,85.14
2022-11-04T12:35:20.574Z,85.26
2022-11-04T12:37:56.073Z,84.88
2022-11-04T12:40:29.547Z,85.31
2022-11-04T12:42:59.111Z,84.15
2022-11-04T12:45:44.382Z,84.44
2022-11-04T12:48:20.273Z,83.63
2022-11-04T12:50:56.073Z,83.86
2022-11-04T12:53:51.540Z,84.89
2022-11-04T12:56:20.492Z,84.09
2022-11-04T12:59:05.655Z,83.81
2022-11-04T13:01:39.148Z,83.32
2022-11-04T13:04:21.568Z,83.99
2022-11-04T13:06:54.852Z,82.70
2022-11-04T13:09:39.313Z,83.44
2022-11-04T13:12:16.478Z,83.22
2022-11-04T13:14:51.948Z,82.72
2022-11-04T13:17:24.520Z,82.61
2022-11-04T13:19:54.245Z,83.07
2022-11-04T13:22:25.573Z,82.71
2022-11-04T13:25:20.093Z,83.71
2022-11-04T13:27:50.592Z,83.17
2022-11-04T13:30:23.319Z,83.01
2022-11-04T13:32:59.122Z,75.79
2022-11-04T13:35:31.743Z,80.45
2022-11-04T13:38:03.092Z,82.78
2022-11-04T13:41:10.437Z,83.86
2022-11-04T13:43:46.682Z,83.97
2022-11-04T13:46:13.028Z,84.54
2022-11-04T13:48:50.039Z,85.32
2022-11-04T13:51:17.913Z,85.40
2022-11-04T13:53:46.213Z,85.45
2022-11-04T13:56:37.091Z,84.85
2022-11-04T13:59:25.290Z,86.19
2022-11-04T14:02:11.955Z,85.82
2022-11-04T14:04:43.491Z,86.34
2022-11-04T14:07:14.370Z,86.94
2022-11-04T14:09:46.648Z,87.11
2022-11-04T14:12:19.592Z,85.87
2022-11-04T14:14:51.499Z,86.75
2022-11-04T14:17:33.290Z,86.52
2022-11-04T14:20:08.971Z,87.17
2022-11-04T14:22:44.296Z,86.65
2022-11-04T14:25:38.593Z,86.80
2022-11-04T14:28:11.163Z,86.20
2022-11-04T14:30:50.826Z,86.57
2022-11-04T14:33:23.936Z,85.29
2022-11-04T14:35:55.381Z,87.02
2022-11-04T14:38:30.616Z,86.15
2022-11-04T14:41:29.609Z,87.18
2022-11-04T14:44:00.305Z,86.17
2022-11-04T14:46:31.267Z,86.61
2022-11-04T14:49:01.209Z,87.63
2022-11-04T14:51:30.828Z,86.53
2022-11-04T14:54:06.505Z,86.13
2022-11-04T14:56:33.218Z,86.74
2022-11-04T14:59:07.566Z,87.00
2022-11-04T15:01:39.585Z,86.19
2022-11-04T15:04:15.074Z,86.86
2022-11-04T15:06:54.710Z,86.22
2022-11-04T15:09:28.756Z,86.37
2022-11-04T15:12:36.235Z,86.69
2022-11-04T15:15:30.685Z,85.51
2022-11-04T15:18:29.098Z,86.39
2022-11-04T15:20:59.256Z,86.60
2022-11-04T15:23:31.206Z,86.79
2022-11-04T15:25:59.283Z,86.74
2022-11-04T15:28:35.655Z,85.73
2022-11-04T15:31:05.953Z,85.61
2022-11-04T15:33:38.724Z,86.25
2022-11-04T15:36:08.496Z,85.57
2022-11-04T15:38:36.142Z,86.85
2022-11-04T15:41:23.596Z,86.13
2022-11-04T15:43:50.344Z,85.16
2022-11-04T15:46:20.950Z,86.10
2022-11-04T15:49:01.793Z,84.99
2022-11-04T15:51:31.198Z,85.58
2022-11-04T15:54:18.867Z,86.38
2022-11-04T15:56:52.537Z,84.84
2022-11-04T15:59:23.700Z,86.08
2022-11-04T16:01:52.624Z,84.73
2022-11-04T16:04:22.893Z,86.20
2022-11-04T16:07:05.714Z,85.84
2022-11-04T16:09:46.279Z,85.85
2022-11-04T16:12:34.249Z,86.37
2022-11-04T16:15:00.750Z,86.27
2022-11-04T16:17:28.708Z,85.81
2022-11-04T16:20:02.577Z,85.17
2022-11-04T16:22:32.919Z,86.03
2022-11-04T16:25:02.019Z,85.27
2022-11-04T16:27:32.819Z,86.49
2022-11-04T16:30:10.580Z,85.63
2022-11-04T16:32:45.272Z,86.06
2022-11-04T16:35:14.692Z,86.17
2022-11-04T16:37:41.097Z,86.14
2022-11-04T16:40:08.232Z,85.13
2022-11-04T16:42:34.633Z,85.52
2022-11-04T16:45:03.304Z,84.74
2022-11-04T16:47:30.777Z,84.49
2022-11-04T16:50:01.758Z,84.19
2022-11-04T16:52:28.596Z,84.41
2022-11-04T16:54:56.276Z,84.03
2022-11-04T16:57:24.481Z,84.69
2022-11-04T16:59:51.182Z,84.97
2022-11-04T17:02:21.212Z,84.15
2022-11-04T17:04:47.915Z,84.02
2022-11-04T17:07:14.442Z,84.26
2022-11-04T17:09:41.046Z,85.14
2022-11-04T17:12:07.892Z,83.38
2022-11-04T17:14:34.971Z,83.71
2022-11-04T17:17:01.933Z,83.92
2022-11-04T17:19:34.249Z,83.32
2022-11-04T17:22:04.231Z,84.56
2022-11-04T17:24:30.803Z,83.82
2022-11-04T17:26:57.376Z,83.92
2022-11-04T17:29:23.938Z,83.06
2022-11-04T17:31:50.522Z,84.06
2022-11-04T17:34:16.911Z,84.90
2022-11-04T17:36:43.415Z,84.90
2022-11-04T17:39:09.904Z,84.53
2022-11-04T17:41:54.776Z,85.27
2022-11-04T17:44:21.269Z,83.96
2022-11-04T17:46:48.777Z,84.64
2022-11-04T17:49:20.749Z,84.19
2022-11-04T17:51:50.318Z,84.06
2022-11-04T17:54:17.138Z,84.68
2022-11-04T17:56:43.775Z,85.18
2022-11-04T17:59:12.303Z,84.74
2022-11-04T18:01:39.771Z,85.63
2022-11-04T18:04:07.360Z,84.38
2022-11-04T18:06:35.952Z,84.90
2022-11-04T18:09:03.404Z,84.52
2022-11-04T18:11:48.950Z,84.95
2022-11-04T18:14:17.474Z,84.99
2022-11-04T18:16:46.882Z,85.00
2022-11-04T18:19:14.531Z,84.95
2022-11-04T18:21:40.954Z,84.70
2022-11-04T18:24:07.842Z,85.65
2022-11-04T18:26:34.500Z,84.10
2022-11-04T18:29:01.784Z,83.90
2022-11-04T18:31:34.150Z,83.73
2022-11-04T18:34:02.848Z,84.49
2022-11-04T18:36:31.023Z,83.39
2022-11-04T18:38:57.471Z,83.73
2022-11-04T18:41:23.937Z,84.29
2022-11-04T18:43:50.331Z,83.63
2022-11-04T18:46:17.624Z,83.87
2022-11-04T18:48:49.512Z,83.73
2022-11-04T18:51:19.126Z,83.34
2022-11-04T18:53:46.076Z,83.09
2022-11-04T18:56:19.372Z,82.70
2022-11-04T18:58:46.296Z,83.54
2022-11-04T19:01:20.403Z,83.50
2022-11-04T19:03:47.499Z,83.01
2022-11-04T19:06:17.442Z,82.95
2022-11-04T19:08:46.840Z,82.03
2022-11-04T19:11:22.789Z,82.59
2022-11-04T19:13:55.121Z,82.13
2022-11-04T19:16:22.519Z,82.54
2022-11-04T19:18:49.487Z,83.11
2022-11-04T19:21:18.803Z,82.43
2022-11-04T19:23:45.869Z,82.88
2022-11-04T19:26:19.002Z,82.68
2022-11-04T19:28:48.520Z,83.44
2022-11-04T19:31:18.096Z,82.78
2022-11-04T19:33:44.844Z,82.59
2022-11-04T19:36:12.489Z,82.33
2022-11-04T19:38:39.459Z,82.36
2022-11-04T19:41:32.946Z,82.92
2022-11-04T19:44:01.781Z,83.89
2022-11-04T19:46:28.389Z,82.94
2022-11-04T19:48:56.533Z,83.23
2022-11-04T19:51:26.607Z,83.52
2022-11-04T19:53:57.318Z,82.86
2022-11-04T19:56:24.758Z,82.26
2022-11-04T19:58:51.292Z,83.37
2022-11-04T20:01:18.701Z,82.76
2022-11-04T20:03:45.457Z,83.76
2022-11-04T20:06:15.301Z,83.26
2022-11-04T20:08:44.306Z,83.51
2022-11-04T20:11:12.597Z,83.16
2022-11-04T20:13:46.606Z,82.65
2022-11-04T20:16:13.631Z,82.41
2022-11-04T20:18:40.135Z,83.09
2022-11-04T20:21:06.662Z,82.33
2022-11-04T20:23:33.126Z,82.14
2022-11-04T20:26:26.738Z,82.62
2022-11-04T20:28:54.621Z,82.99
2022-11-04T20:31:23.744Z,82.62
2022-11-04T20:33:51.652Z,82.74
2022-11-04T20:36:21.115Z,82.62
2022-11-04T20:38:47.840Z,82.75
2022-11-04T20:41:18.767Z,82.43
2022-11-04T20:43:49.376Z,81.64
2022-11-04T20:46:21.950Z,82.84
2022-11-04T20:48:50.266Z,82.56
2022-11-04T20:51:19.957Z,83.05
2022-11-04T20:53:47.489Z,82.81
2022-11-04T20:56:18.251Z,82.38
2022-11-04T20:58:47.830Z,82.01
2022-11-04T21:01:21.301Z,82.17
2022-11-04T21:03:47.833Z,82.19
2022-11-04T21:06:14.259Z,82.45
2022-11-04T21:08:40.677Z,82.60
2022-11-04T21:11:07.921Z,81.41
2022-11-04T21:13:34.483Z,82.65
2022-11-04T21:16:01.777Z,81.30
2022-11-04T21:18:28.296Z,83.08
2022-11-04T21:20:55.298Z,82.77
2022-11-04T21:23:22.303Z,81.62
2022-11-04T21:25:57.517Z,82.68
2022-11-04T21:28:24.965Z,81.99
2022-11-04T21:30:53.444Z,82.37
2022-11-04T21:33:20.070Z,81.81
2022-11-04T21:35:50.384Z,82.23
2022-11-04T21:38:18.213Z,81.94
2022-11-04T21:40:45.420Z,82.14
2022-11-04T21:43:13.345Z,82.55
2022-11-04T21:45:39.938Z,81.68
2022-11-04T21:48:06.803Z,82.01
2022-11-04T21:50:33.610Z,83.12
2022-11-04T21:53:00.395Z,82.68
2022-11-04T21:55:26.818Z,82.47
2022-11-04T21:57:53.337Z,82.71
2022-11-04T22:00:19.781Z,81.77
2022-11-04T22:02:52.959Z,81.64
2022-11-04T22:05:19.556Z,82.26
2022-11-04T22:08:04.549Z,82.47
2022-11-04T22:10:31.185Z,82.17
2022-11-04T22:12:57.614Z,81.31
2022-11-04T22:15:42.727Z,82.23
2022-11-04T22:18:09.261Z,81.20
2022-11-04T22:20:36.785Z,81.31
2022-11-04T22:23:03.471Z,81.40
2022-11-04T22:25:30.600Z,81.40
2022-11-04T22:27:57.264Z,82.23
2022-11-04T22:30:24.068Z,81.46
2022-11-04T22:32:51.705Z,81.97
2022-11-04T22:35:18.304Z,81.22
2022-11-04T22:37:44.777Z,82.17
2022-11-04T22:40:11.821Z,82.49
2022-11-04T22:42:38.428Z,82.16
2022-11-04T22:45:05.599Z,82.36
2022-11-04T22:47:32.182Z,82.21
2022-11-04T22:49:58.591Z,81.53
2022-11-04T22:52:25.147Z,81.78
2022-11-04T22:54:51.649Z,82.64
2022-11-04T22:57:18.087Z,82.41
2022-11-04T22:59:44.607Z,81.87
2022-11-04T23:02:11.288Z,81.74
2022-11-04T23:04:37.894Z,81.33
2022-11-04T23:07:04.744Z,82.15
2022-11-04T23:09:31.867Z,82.30
2022-11-04T23:12:17.060Z,82.21
2022-11-04T23:14:43.488Z,82.13
2022-11-04T23:17:37.060Z,81.94
2022-11-04T23:20:05.940Z,81.11
2022-11-04T23:22:50.746Z,82.90
2022-11-04T23:25:17.600Z,81.61
2022-11-04T23:28:06.771Z,81.90
2022-11-04T23:30:36.688Z,81.68
2022-11-04T23:33:09.081Z,81.51
2022-11-04T23:36:01.067Z,81.71
2022-11-04T23:38:31.158Z,81.76
2022-11-04T23:41:18.572Z,80.77
2022-11-04T23:43:45.240Z,82.12
2022-11-04T23:46:30.430Z,81.39
2022-11-04T23:49:15.729Z,81.90
2022-11-04T23:52:00.768Z,81.45
2022-11-04T23:54:46.172Z,81.12
2022-11-04T23:57:36.144Z,80.76
